Nearby METAR Reports

 

KCPC - Whiteville, North Carolina, USA
Distance from station: NNE 17mi, 28km
Updated: 10/22/2018 6:55pm
Clear
Clear
 Wind from calm
Wind: Calm
Temperature: 55°F , 13°C
Dew Point: 41°F , 5°C
Humidity: 59%
Barometer: 30.25 inHg , 1024.4 hPa
Clouds: Clear
Visibility: 10 miles , 16 km
2018/10/22 22:55 KCPC 222255Z AUTO 00000KT 10SM CLR 13/05 A3025 RMK AO2 T01300054
KCRE - North Myrtle Bea, South Carolina, USA
Distance from station: SSE 19mi, 31km
Updated: 10/22/2018 6:53pm
Clear
Clear
 Wind from calm
Wind: Calm
Temperature: 59°F , 15°C
Dew Point: 48°F , 9°C
Humidity: 68%
Barometer: 30.24 inHg , 1024 hPa
Clouds: Clear
Visibility: 10 miles , 16 km
2018/10/22 22:53 KCRE 222253Z 00000KT 10SM CLR 15/09 A3024 RMK AO1 SLP242 T01500094
 
KHYW - Conway-Horry Cty, South Carolina, USA
Distance from station: SW 22mi, 35km
Updated: 10/22/2018 6:55pm
Clear
Clear
 Wind from calm
Wind: Calm
Temperature: 52°F , 11°C
Dew Point: 50°F , 10°C
Humidity: 94%
Barometer: 30.26 inHg , 1024.7 hPa
Clouds: Clear
Visibility: 7 miles , 11 km
2018/10/22 22:55 KHYW 222255Z AUTO 00000KT 7SM CLR 11/10 A3026 RMK AO2
KMAO - Marion, South Carolina, USA
Distance from station: WNW 28mi, 45km
Updated: 10/22/2018 6:55pm
Clear
Clear
 Wind from calm
Wind: Calm
Temperature: 54°F , 12°C
Dew Point: 43°F , 6°C
Humidity: 67%
Barometer: 30.26 inHg , 1024.7 hPa
Clouds: Clear
Visibility: 10 miles , 16 km
2018/10/22 22:55 KMAO 222255Z AUTO 00000KT 10SM CLR 12/06 A3026 RMK AO2
 
KMYR - Myrtle Beach, South Carolina, USA
Distance from station: S 28mi, 45km
Updated: 10/22/2018 6:56pm
Clear
Clear
 Wind from ESE
Wind: ESE 3 mph , 6 km/h
Temperature: 61°F , 16°C
Dew Point: 48°F , 9°C
Humidity: 63%
Barometer: 30.26 inHg , 1024.7 hPa
Clouds: Clear
Visibility: 10 miles , 16 km
2018/10/22 22:56 KMYR 222256Z 12003KT 10SM CLR 16/09 A3026 RMK AO2 SLP248 T01610094
KLBT - Lumberton, North Carolina, USA
Distance from station: NNW 39mi, 62km
Updated: 10/22/2018 6:54pm
Clear
Clear
 Wind from calm
Wind: Calm
Temperature: 55°F , 13°C
Dew Point: 45°F , 7°C
Humidity: 67%
Barometer: 30.24 inHg , 1024 hPa
Clouds: Clear
Visibility: 10 miles , 16 km
2018/10/22 22:54 KLBT 222254Z AUTO 00000KT 10SM CLR 13/07 A3024 RMK AO2 SLP242 T01280067
 
KSUT - Southport, North Carolina, USA
Distance from station: E 46mi, 74km
Updated: 10/22/2018 7:05pm
Clear
Clear
 Wind from calm
Wind: Calm
Temperature: 59°F , 15°C
Dew Point: 45°F , 7°C
Humidity: 59%
Barometer: 30.26 inHg , 1024.7 hPa
Clouds: Clear
Visibility: 10 miles , 16 km
2018/10/22 23:05 KSUT 222305Z AUTO 00000KT 10SM CLR 15/07 A3026 RMK AO2 T01460071
KFLO - Florence, South Carolina, USA
Distance from station: W 50mi, 81km
Updated: 10/22/2018 6:53pm
Clear
Clear
 Wind from calm
Wind: Calm
Temperature: 57°F , 14°C
Dew Point: 43°F , 6°C
Humidity: 59%
Barometer: 30.25 inHg , 1024.4 hPa
Clouds: Clear
Visibility: 10 miles , 16 km
2018/10/22 22:53 KFLO 222253Z 00000KT 10SM CLR 14/06 A3025 RMK AO2 SLP243 T01390061